Time;durP1;ratioP1;P1;durP2;ratioP2;P2;SDS_P1;SDS_P2;PMS_P1;PMS_P2;Temp;Humidity;BMP_temperature;BMP_pressure;BME280_temperature;BME280_humidity;BME280_pressure;Samples;Min_cycle;Max_cycle;Signal;HPM_P1;HPM_P2
2023/03/09 00:01:54;;;;;;;0.50;0.43;;;8.50;99.90;;;;;;4983421;28;20230;-63
2023/03/09 00:04:22;;;;;;;1.33;1.02;;;8.60;99.90;;;;;;4975470;28;20210;-63
2023/03/09 00:06:50;;;;;;;1.00;1.00;;;8.60;99.90;;;;;;4979084;28;20210;-63
2023/03/09 00:09:21;;;;;;;1.35;1.20;;;8.60;99.90;;;;;;4964570;28;20203;-63
2023/03/09 00:11:50;;;;;;;0.93;0.93;;;8.70;99.90;;;;;;4965933;28;20225;-63
2023/03/09 00:14:21;;;;;;;0.60;0.50;;;8.70;99.90;;;;;;4963674;28;20211;-63
2023/03/09 00:16:49;;;;;;;0.80;0.80;;;8.80;99.90;;;;;;4976752;28;20264;-63
2023/03/09 00:19:20;;;;;;;0.60;0.50;;;8.80;99.90;;;;;;4964819;28;20213;-62
2023/03/09 00:21:51;;;;;;;0.60;0.47;;;8.80;99.90;;;;;;4963939;28;20459;-63
2023/03/09 00:24:20;;;;;;;1.48;0.85;;;8.80;99.90;;;;;;4969734;28;20710;-63
2023/03/09 00:26:50;;;;;;;1.38;1.27;;;8.90;99.90;;;;;;4968052;28;20225;-63
2023/03/09 00:29:19;;;;;;;1.25;1.25;;;9.00;99.90;;;;;;4963931;28;20290;-63
2023/03/09 00:31:48;;;;;;;0.80;0.80;;;9.00;99.90;;;;;;4965591;28;20246;-63
2023/03/09 00:34:16;;;;;;;1.52;0.82;;;9.10;99.90;;;;;;4966545;28;20210;-63
2023/03/09 00:36:44;;;;;;;0.60;0.60;;;9.10;99.90;;;;;;4967183;28;20240;-64
2023/03/09 00:39:15;;;;;;;0.82;0.50;;;9.20;99.90;;;;;;4960207;28;20226;-63
2023/03/09 00:41:43;;;;;;;0.63;0.63;;;9.20;99.90;;;;;;4971765;28;20795;-63
2023/03/09 00:44:12;;;;;;;1.77;1.40;;;9.20;99.90;;;;;;4962085;28;20306;-62
2023/03/09 00:46:42;;;;;;;1.02;0.93;;;9.20;99.90;;;;;;4965673;28;20819;-63
2023/03/09 00:49:12;;;;;;;1.52;1.42;;;9.10;99.90;;;;;;4963660;28;20202;-63
2023/03/09 00:51:41;;;;;;;1.65;1.25;;;9.20;99.90;;;;;;4968344;28;20783;-63
2023/03/09 00:54:11;;;;;;;1.45;1.23;;;9.20;99.90;;;;;;4962533;28;20297;-62
2023/03/09 00:56:39;;;;;;;0.70;0.70;;;9.30;99.90;;;;;;4969177;28;20207;-62
2023/03/09 00:59:07;;;;;;;0.80;0.70;;;9.30;99.90;;;;;;4964147;28;20920;-62
2023/03/09 01:01:35;;;;;;;0.50;0.50;;;9.40;99.90;;;;;;4964393;28;20368;-62
2023/03/09 01:04:04;;;;;;;0.60;0.60;;;9.40;99.90;;;;;;4965482;28;20202;-62
2023/03/09 01:06:32;;;;;;;1.13;1.08;;;9.40;99.90;;;;;;4967607;28;20210;-62
2023/03/09 01:09:00;;;;;;;0.73;0.50;;;9.40;99.90;;;;;;4963039;28;20206;-62
2023/03/09 01:11:28;;;;;;;0.70;0.63;;;9.50;99.90;;;;;;4961803;28;20231;-62
2023/03/09 01:13:56;;;;;;;1.77;1.08;;;9.40;99.90;;;;;;4961585;28;20214;-63
2023/03/09 01:16:24;;;;;;;0.77;0.75;;;9.40;99.90;;;;;;4974955;28;20211;-62
2023/03/09 01:18:52;;;;;;;1.25;1.15;;;9.20;99.90;;;;;;4978024;28;20226;-63
2023/03/09 01:21:21;;;;;;;0.60;0.50;;;9.10;99.90;;;;;;4979156;28;20230;-62
2023/03/09 01:23:49;;;;;;;0.90;0.90;;;9.10;99.90;;;;;;4967189;28;20202;-62
2023/03/09 01:26:18;;;;;;;0.60;0.50;;;9.10;99.90;;;;;;4966217;28;20296;-63
2023/03/09 01:28:48;;;;;;;0.80;0.80;;;9.00;99.90;;;;;;4964566;28;20289;-62
2023/03/09 01:31:16;;;;;;;1.23;1.05;;;9.00;99.90;;;;;;4964140;28;20604;-62
2023/03/09 01:33:45;;;;;;;0.98;0.90;;;8.90;99.90;;;;;;4963159;28;20681;-63
2023/03/09 01:36:15;;;;;;;1.48;1.35;;;8.90;99.90;;;;;;4962337;28;20206;-62
2023/03/09 01:38:45;;;;;;;0.73;0.73;;;8.90;99.90;;;;;;4966930;28;20258;-62
2023/03/09 01:41:15;;;;;;;0.60;0.60;;;8.90;99.90;;;;;;4965138;28;20614;-62
2023/03/09 01:43:44;;;;;;;1.35;1.25;;;8.90;99.90;;;;;;4965568;28;20745;-62
2023/03/09 01:46:41;;;;;;;2.05;1.90;;;8.80;99.90;;;;;;4966620;28;20205;-63
2023/03/09 01:49:34;;;;;;;1.10;1.00;;;8.90;99.90;;;;;;4961779;28;20280;-62
2023/03/09 01:52:09;;;;;;;0.93;0.93;;;8.90;99.90;;;;;;4962505;28;20238;-62
2023/03/09 01:54:44;;;;;;;1.17;1.08;;;8.90;99.90;;;;;;4974990;28;20202;-62
2023/03/09 01:57:16;;;;;;;0.60;0.47;;;8.90;99.90;;;;;;4970213;28;20209;-62
2023/03/09 01:59:45;;;;;;;1.05;0.95;;;8.90;99.90;;;;;;4973072;28;20730;-63
2023/03/09 02:02:14;;;;;;;0.68;0.65;;;8.90;99.90;;;;;;4965017;28;20225;-62
2023/03/09 02:04:45;;;;;;;1.50;1.40;;;8.90;99.90;;;;;;4968529;28;20272;-62
2023/03/09 02:07:15;;;;;;;0.60;0.60;;;8.80;99.90;;;;;;4963473;28;20207;-62
2023/03/09 02:09:49;;;;;;;2.03;1.65;;;8.80;99.90;;;;;;4965760;28;20214;-62
2023/03/09 02:12:19;;;;;;;1.63;1.52;;;8.80;99.90;;;;;;4963787;28;20285;-62
2023/03/09 02:14:47;;;;;;;1.48;1.38;;;8.70;99.90;;;;;;4972941;28;20229;-62
2023/03/09 02:17:16;;;;;;;1.40;1.30;;;8.60;99.90;;;;;;4969092;28;20213;-62
2023/03/09 02:19:55;;;;;;;2.08;1.98;;;8.60;99.90;;;;;;4970412;28;20206;-63
2023/03/09 02:22:23;;;;;;;1.27;1.13;;;8.60;99.90;;;;;;4969113;28;20245;-62
2023/03/09 02:25:03;;;;;;;1.00;0.75;;;8.60;99.90;;;;;;4972386;28;20217;-62
2023/03/09 02:27:34;;;;;;;1.48;1.33;;;8.50;99.90;;;;;;4964951;28;20234;-62
2023/03/09 02:30:02;;;;;;;0.98;0.93;;;8.50;99.90;;;;;;4967979;28;20241;-62
2023/03/09 02:32:30;;;;;;;1.88;1.48;;;8.50;99.90;;;;;;4970336;28;20201;-62
2023/03/09 02:34:58;;;;;;;1.55;1.45;;;8.50;99.90;;;;;;4967783;28;20272;-62
2023/03/09 02:37:31;;;;;;;0.65;0.63;;;8.50;99.90;;;;;;4966017;28;20292;-62
2023/03/09 02:40:04;;;;;;;0.80;0.80;;;8.30;99.90;;;;;;4969301;28;20265;-62
2023/03/09 02:42:33;;;;;;;1.05;0.95;;;8.30;99.90;;;;;;4970349;28;20221;-63
2023/03/09 02:45:02;;;;;;;0.80;0.80;;;8.30;99.90;;;;;;4966917;28;20693;-62
2023/03/09 02:47:30;;;;;;;0.60;0.50;;;8.20;99.90;;;;;;4964679;28;20209;-63
2023/03/09 02:49:58;;;;;;;0.75;0.75;;;8.20;99.90;;;;;;4981636;28;20268;-63
2023/03/09 02:52:26;;;;;;;1.48;0.60;;;8.20;99.90;;;;;;4983422;28;20214;-62
2023/03/09 02:54:54;;;;;;;0.57;0.50;;;8.20;99.90;;;;;;4976971;28;20219;-62
2023/03/09 02:57:22;;;;;;;1.00;0.85;;;8.20;99.90;;;;;;4984728;28;20217;-62
2023/03/09 02:59:51;;;;;;;0.88;0.88;;;8.20;99.90;;;;;;4976659;28;20201;-62
2023/03/09 03:02:19;;;;;;;0.80;0.80;;;8.20;99.90;;;;;;4983596;28;20311;-63
2023/03/09 03:04:47;;;;;;;0.50;0.40;;;8.20;99.90;;;;;;4968819;28;20219;-63
2023/03/09 03:07:14;;;;;;;0.50;0.40;;;8.10;99.90;;;;;;4969370;28;20206;-64
2023/03/09 03:09:42;;;;;;;0.50;0.40;;;8.20;99.90;;;;;;4966340;28;20230;-63
2023/03/09 03:12:10;;;;;;;0.50;0.40;;;8.20;99.90;;;;;;4965133;28;20691;-64
2023/03/09 03:14:38;;;;;;;0.90;0.80;;;8.10;99.90;;;;;;4965314;28;20336;-63
2023/03/09 03:17:07;;;;;;;0.60;0.50;;;8.10;99.90;;;;;;4966645;28;20849;-63
2023/03/09 03:19:36;;;;;;;0.50;0.30;;;8.10;99.90;;;;;;4963186;28;20196;-63
2023/03/09 03:22:04;;;;;;;0.50;0.40;;;8.10;99.90;;;;;;4967878;28;20233;-63
2023/03/09 03:24:36;;;;;;;0.60;0.40;;;8.10;99.90;;;;;;4964658;28;20209;-63
2023/03/09 03:27:04;;;;;;;0.50;0.30;;;8.20;99.90;;;;;;4961765;28;20762;-65
2023/03/09 03:29:32;;;;;;;0.60;0.40;;;8.20;99.90;;;;;;4965410;28;20748;-63
2023/03/09 03:32:00;;;;;;;0.50;0.40;;;8.20;99.90;;;;;;4967438;28;20266;-63
2023/03/09 03:34:29;;;;;;;0.50;0.30;;;8.20;99.90;;;;;;4965633;28;20216;-63
2023/03/09 03:36:57;;;;;;;0.60;0.40;;;8.20;99.90;;;;;;4962772;28;20213;-63
2023/03/09 03:39:25;;;;;;;0.50;0.30;;;8.20;99.90;;;;;;4965972;28;20675;-63
2023/03/09 03:41:53;;;;;;;0.50;0.40;;;8.30;99.90;;;;;;4961288;28;20231;-63
2023/03/09 03:44:21;;;;;;;0.50;0.30;;;8.30;99.90;;;;;;4966473;28;20241;-63
2023/03/09 03:46:49;;;;;;;0.50;0.30;;;8.20;99.90;;;;;;4964646;28;20217;-63
2023/03/09 03:49:17;;;;;;;0.50;0.40;;;8.30;99.90;;;;;;4966892;28;20729;-63
2023/03/09 03:51:46;;;;;;;0.50;0.30;;;8.30;99.90;;;;;;4978476;28;20232;-63
2023/03/09 03:54:14;;;;;;;0.50;0.30;;;8.40;99.90;;;;;;4980790;28;20218;-63
2023/03/09 03:56:43;;;;;;;0.50;0.30;;;8.50;99.90;;;;;;4981528;28;20287;-63
2023/03/09 03:59:10;;;;;;;0.50;0.30;;;8.50;99.90;;;;;;4978006;28;20220;-63
2023/03/09 04:01:38;;;;;;;0.50;0.40;;;8.60;99.90;;;;;;4977120;28;20610;-63
2023/03/09 04:04:07;;;;;;;0.50;0.30;;;8.60;99.90;;;;;;4972603;28;20211;-63
2023/03/09 04:06:35;;;;;;;0.50;0.30;;;8.50;99.90;;;;;;4967368;28;20218;-63
2023/03/09 04:09:05;;;;;;;0.50;0.30;;;8.50;99.90;;;;;;4967746;28;20686;-63
2023/03/09 04:11:33;;;;;;;0.50;0.30;;;8.60;99.90;;;;;;4962177;28;20237;-64
2023/03/09 04:14:01;;;;;;;0.50;0.30;;;8.60;99.90;;;;;;4969029;28;20288;-63
2023/03/09 04:16:28;;;;;;;0.60;0.50;;;8.60;99.90;;;;;;4969604;28;20202;-63
2023/03/09 04:18:56;;;;;;;0.50;0.30;;;8.60;99.90;;;;;;4966372;28;20216;-63
2023/03/09 04:21:24;;;;;;;0.50;0.30;;;8.60;99.90;;;;;;4972138;28;20684;-63
2023/03/09 04:23:52;;;;;;;0.50;0.30;;;8.50;99.90;;;;;;4964965;28;20249;-63
2023/03/09 04:26:21;;;;;;;0.50;0.30;;;8.50;99.90;;;;;;4962529;28;20214;-63
2023/03/09 04:28:49;;;;;;;0.50;0.30;;;8.60;99.90;;;;;;4966827;28;20214;-63
2023/03/09 04:31:17;;;;;;;0.50;0.30;;;8.50;99.90;;;;;;4961931;28;20837;-63
2023/03/09 04:33:45;;;;;;;0.80;0.50;;;8.50;99.90;;;;;;4968221;28;20603;-63
2023/03/09 04:36:12;;;;;;;0.50;0.40;;;8.50;99.90;;;;;;4968745;28;20205;-63
2023/03/09 04:38:40;;;;;;;0.50;0.30;;;8.50;99.90;;;;;;4963934;28;20326;-63
2023/03/09 04:41:12;;;;;;;0.50;0.30;;;8.50;99.90;;;;;;4971204;28;20225;-63
2023/03/09 04:43:41;;;;;;;0.50;0.30;;;8.50;99.90;;;;;;4978640;28;20223;-63
2023/03/09 04:46:11;;;;;;;0.70;0.50;;;8.50;99.90;;;;;;4960535;28;20223;-63
2023/03/09 04:48:41;;;;;;;1.05;0.40;;;8.40;99.90;;;;;;4969731;28;20293;-63
2023/03/09 04:51:09;;;;;;;0.50;0.30;;;8.40;99.90;;;;;;4959359;28;20226;-63
2023/03/09 04:53:37;;;;;;;0.50;0.30;;;8.40;99.90;;;;;;4962870;28;20199;-62
2023/03/09 04:56:05;;;;;;;0.50;0.30;;;8.40;99.90;;;;;;4964223;28;20286;-63
2023/03/09 04:58:33;;;;;;;0.50;0.30;;;8.30;99.90;;;;;;4960759;28;20564;-63
2023/03/09 05:01:02;;;;;;;0.50;0.38;;;8.30;99.90;;;;;;4966964;28;20238;-63
2023/03/09 05:03:31;;;;;;;0.50;0.40;;;8.30;99.90;;;;;;4967671;28;20231;-64
2023/03/09 05:05:59;;;;;;;0.50;0.30;;;8.40;99.90;;;;;;4965086;28;20703;-64
2023/03/09 05:08:26;;;;;;;0.50;0.30;;;8.40;99.90;;;;;;4967597;28;20743;-64
2023/03/09 05:10:54;;;;;;;0.50;0.30;;;8.30;99.90;;;;;;4971376;28;20316;-63
2023/03/09 05:13:22;;;;;;;0.70;0.60;;;8.40;99.90;;;;;;4971810;28;20618;-63
2023/03/09 05:15:50;;;;;;;0.50;0.35;;;8.30;99.90;;;;;;4968812;28;20219;-62
2023/03/09 05:18:19;;;;;;;0.50;0.40;;;8.40;99.90;;;;;;4959736;28;20210;-63
2023/03/09 05:20:47;;;;;;;0.50;0.30;;;8.40;99.90;;;;;;4971929;28;20249;-63
2023/03/09 05:23:15;;;;;;;0.70;0.55;;;8.40;99.90;;;;;;4961888;28;20230;-63
2023/03/09 05:25:43;;;;;;;0.50;0.30;;;8.30;99.90;;;;;;4968990;28;20555;-63
2023/03/09 05:28:12;;;;;;;0.52;0.45;;;8.40;99.90;;;;;;4972196;28;20209;-63
2023/03/09 05:30:43;;;;;;;0.50;0.30;;;8.40;99.90;;;;;;4972749;28;20238;-63
2023/03/09 05:33:11;;;;;;;0.50;0.30;;;8.40;99.90;;;;;;4967564;28;20613;-63
2023/03/09 05:35:40;;;;;;;0.50;0.40;;;8.40;99.90;;;;;;4969003;28;20238;-63
2023/03/09 05:38:08;;;;;;;0.50;0.30;;;8.50;99.90;;;;;;4972826;28;20292;-63
2023/03/09 05:40:36;;;;;;;0.50;0.30;;;8.50;99.90;;;;;;4973708;28;20227;-63
2023/03/09 05:43:04;;;;;;;0.50;0.40;;;8.50;99.90;;;;;;4972987;28;20245;-63
2023/03/09 05:45:32;;;;;;;0.50;0.30;;;8.60;99.90;;;;;;4982998;28;20696;-63
2023/03/09 05:48:00;;;;;;;0.50;0.30;;;8.60;99.90;;;;;;4974032;28;20214;-63
2023/03/09 05:50:27;;;;;;;0.50;0.40;;;8.60;99.90;;;;;;4974837;28;20662;-66
2023/03/09 05:52:57;;;;;;;0.50;0.30;;;8.70;99.90;;;;;;4971052;28;20199;-64
2023/03/09 05:55:28;;;;;;;0.50;0.30;;;8.70;99.90;;;;;;4973229;28;20210;-63
2023/03/09 05:57:55;;;;;;;0.50;0.30;;;8.60;99.90;;;;;;4963673;28;20294;-63
2023/03/09 06:00:24;;;;;;;0.50;0.30;;;8.70;99.90;;;;;;4961619;28;20230;-63
2023/03/09 06:02:52;;;;;;;0.50;0.30;;;8.70;99.90;;;;;;4962028;28;20231;-63
2023/03/09 06:05:20;;;;;;;0.70;0.68;;;8.60;99.90;;;;;;4963102;28;20273;-63
2023/03/09 06:07:47;;;;;;;0.50;0.40;;;8.60;99.90;;;;;;4967564;28;20213;-63
2023/03/09 06:10:17;;;;;;;0.50;0.30;;;8.60;99.90;;;;;;4964533;28;20788;-64
2023/03/09 06:12:45;;;;;;;0.57;0.55;;;8.60;99.90;;;;;;4968517;28;20198;-63
2023/03/09 06:15:13;;;;;;;0.70;0.65;;;8.70;99.90;;;;;;4964730;28;20213;-63
2023/03/09 06:17:41;;;;;;;1.17;0.75;;;8.70;99.90;;;;;;4966088;28;20202;-64
2023/03/09 06:20:10;;;;;;;0.50;0.40;;;8.70;99.90;;;;;;4959577;28;20236;-63
2023/03/09 06:22:39;;;;;;;0.85;0.70;;;8.70;99.90;;;;;;4975980;28;20237;-63
2023/03/09 06:25:08;;;;;;;0.50;0.30;;;8.70;99.90;;;;;;4968915;28;20211;-63
2023/03/09 06:27:38;;;;;;;0.50;0.30;;;8.70;99.90;;;;;;4967210;28;20297;-63
2023/03/09 06:30:07;;;;;;;0.50;0.40;;;8.70;99.90;;;;;;4981372;28;20235;-63
2023/03/09 06:32:35;;;;;;;0.50;0.30;;;8.70;99.90;;;;;;4970856;28;20213;-63
2023/03/09 06:35:03;;;;;;;0.50;0.40;;;8.70;99.90;;;;;;4967895;28;20264;-62
2023/03/09 06:37:31;;;;;;;0.50;0.30;;;8.70;99.90;;;;;;4961475;28;20217;-62
2023/03/09 06:39:59;;;;;;;0.60;0.60;;;8.70;99.90;;;;;;4966007;28;20217;-63
2023/03/09 06:42:27;;;;;;;0.50;0.30;;;8.70;99.90;;;;;;4963784;28;20288;-62
2023/03/09 06:44:56;;;;;;;0.50;0.40;;;8.80;99.90;;;;;;4962236;28;20240;-62
2023/03/09 06:47:24;;;;;;;0.63;0.63;;;8.80;99.90;;;;;;4978032;28;20213;-62
2023/03/09 06:49:53;;;;;;;0.50;0.40;;;8.80;99.90;;;;;;4981082;28;20602;-62
2023/03/09 06:52:21;;;;;;;0.50;0.30;;;8.80;99.90;;;;;;4979458;28;20224;-62
2023/03/09 06:54:49;;;;;;;1.58;0.40;;;8.80;99.90;;;;;;4983580;28;20216;-62
2023/03/09 06:57:17;;;;;;;0.88;0.50;;;8.80;99.90;;;;;;4981400;28;20221;-62
2023/03/09 06:59:45;;;;;;;0.50;0.40;;;8.80;99.90;;;;;;4980771;28;20297;-62
2023/03/09 07:02:15;;;;;;;0.50;0.40;;;8.80;99.90;;;;;;4980117;28;20224;-62
2023/03/09 07:04:43;;;;;;;0.60;0.50;;;8.80;99.90;;;;;;4972583;28;20787;-62
2023/03/09 07:07:12;;;;;;;1.25;0.57;;;8.80;99.90;;;;;;4965548;28;20290;-62
2023/03/09 07:09:40;;;;;;;0.60;0.50;;;8.80;99.90;;;;;;4985363;28;20223;-61
2023/03/09 07:12:08;;;;;;;1.55;0.60;;;8.80;99.90;;;;;;4984799;28;20214;-62
2023/03/09 07:14:36;;;;;;;1.00;1.00;;;8.80;99.90;;;;;;4988552;28;20695;-62
2023/03/09 07:17:04;;;;;;;0.70;0.50;;;8.90;99.90;;;;;;4983938;28;20678;-63
2023/03/09 07:19:34;;;;;;;1.13;0.47;;;8.90;99.90;;;;;;4977501;28;20256;-63
2023/03/09 07:22:01;;;;;;;0.50;0.40;;;8.80;99.90;;;;;;4983605;28;20225;-62
2023/03/09 07:24:29;;;;;;;0.50;0.30;;;8.90;99.90;;;;;;4984612;28;20233;-62
2023/03/09 07:26:57;;;;;;;0.50;0.30;;;8.90;99.90;;;;;;4972658;28;20215;-63
2023/03/09 07:29:25;;;;;;;0.50;0.30;;;8.90;99.90;;;;;;4978942;28;20202;-62
2023/03/09 07:31:53;;;;;;;0.70;0.70;;;9.00;99.90;;;;;;4974452;28;20337;-62
2023/03/09 07:34:21;;;;;;;0.60;0.60;;;8.90;99.90;;;;;;4972901;28;20209;-62
2023/03/09 07:36:51;;;;;;;1.13;0.60;;;9.00;99.90;;;;;;4981834;28;20249;-63
2023/03/09 07:39:18;;;;;;;0.50;0.40;;;9.00;99.90;;;;;;4983617;28;20326;-62
2023/03/09 07:41:46;;;;;;;0.60;0.40;;;9.00;99.90;;;;;;4982872;28;20239;-61
2023/03/09 07:44:14;;;;;;;0.50;0.40;;;9.10;99.90;;;;;;4980748;28;20226;-62
2023/03/09 07:46:42;;;;;;;0.50;0.40;;;9.10;99.90;;;;;;4980876;28;20269;-62
2023/03/09 07:49:10;;;;;;;0.60;0.40;;;9.10;99.90;;;;;;4983807;28;20260;-62
2023/03/09 07:51:38;;;;;;;0.80;0.80;;;9.10;99.90;;;;;;4983608;28;20264;-62
2023/03/09 07:54:08;;;;;;;0.73;0.60;;;9.10;99.90;;;;;;4980840;28;20559;-63
2023/03/09 07:56:36;;;;;;;0.73;0.70;;;9.10;99.90;;;;;;4980765;28;20631;-62
2023/03/09 07:59:04;;;;;;;0.77;0.70;;;9.10;99.90;;;;;;4983365;28;20249;-62
2023/03/09 08:01:32;;;;;;;0.50;0.40;;;9.20;99.90;;;;;;4977079;28;20226;-62
2023/03/09 08:04:00;;;;;;;0.52;0.47;;;9.20;99.90;;;;;;4971887;28;20625;-62
2023/03/09 08:06:28;;;;;;;0.77;0.77;;;9.30;99.90;;;;;;4978746;28;20202;-62
2023/03/09 08:08:56;;;;;;;0.50;0.40;;;9.30;99.90;;;;;;4981554;28;20213;-62
2023/03/09 08:11:26;;;;;;;0.60;0.50;;;9.30;99.90;;;;;;4980221;28;20222;-62
2023/03/09 08:13:53;;;;;;;0.50;0.40;;;9.40;99.90;;;;;;4981729;28;20210;-62
2023/03/09 08:16:21;;;;;;;0.50;0.40;;;9.40;99.90;;;;;;4983612;28;20206;-62
2023/03/09 08:18:49;;;;;;;0.77;0.50;;;9.40;99.90;;;;;;4982279;28;20580;-62
2023/03/09 08:21:17;;;;;;;0.88;0.70;;;9.50;99.90;;;;;;4980008;28;20237;-62
2023/03/09 08:23:45;;;;;;;0.65;0.60;;;9.60;99.90;;;;;;4980504;28;20217;-62
2023/03/09 08:26:14;;;;;;;0.60;0.50;;;9.60;99.90;;;;;;4983706;28;20210;-62
2023/03/09 08:28:44;;;;;;;0.60;0.50;;;9.60;99.90;;;;;;4983383;28;20277;-62
2023/03/09 08:31:21;;;;;;;0.50;0.30;;;9.70;99.90;;;;;;4979396;28;20242;-62
2023/03/09 08:33:49;;;;;;;0.60;0.50;;;9.70;99.90;;;;;;4972052;28;20579;-62
2023/03/09 08:36:21;;;;;;;0.50;0.40;;;9.80;99.90;;;;;;4976764;28;20224;-62
2023/03/09 08:38:50;;;;;;;0.60;0.40;;;9.80;99.90;;;;;;4982509;28;20233;-62
2023/03/09 08:41:19;;;;;;;0.60;0.45;;;9.90;99.90;;;;;;4979921;28;20230;-62
2023/03/09 08:43:48;;;;;;;0.80;0.60;;;9.90;99.90;;;;;;4980300;28;20293;-62
2023/03/09 08:46:16;;;;;;;0.50;0.40;;;9.80;99.90;;;;;;4983330;28;20206;-63
2023/03/09 08:48:46;;;;;;;0.50;0.40;;;9.80;99.90;;;;;;4983161;28;20229;-63
2023/03/09 08:51:14;;;;;;;0.50;0.40;;;9.80;99.90;;;;;;4983767;28;20229;-61
2023/03/09 08:53:42;;;;;;;0.50;0.30;;;9.80;99.90;;;;;;4984018;28;20213;-61
2023/03/09 08:56:12;;;;;;;0.50;0.30;;;9.80;99.90;;;;;;4984238;28;20202;-61
2023/03/09 08:58:40;;;;;;;0.50;0.30;;;9.80;99.90;;;;;;4983818;28;20203;-62
2023/03/09 09:01:10;;;;;;;0.50;0.30;;;9.80;99.90;;;;;;4983431;28;20272;-62
2023/03/09 09:03:39;;;;;;;1.65;0.73;;;9.80;99.90;;;;;;4975659;28;20257;-62
2023/03/09 09:06:09;;;;;;;0.50;0.30;;;9.90;99.90;;;;;;4983418;28;20214;-62
2023/03/09 09:08:42;;;;;;;0.50;0.30;;;10.00;99.90;;;;;;4983007;28;20217;-61
2023/03/09 09:11:12;;;;;;;0.50;0.40;;;10.10;99.90;;;;;;4986496;28;20229;-61
2023/03/09 09:13:43;;;;;;;0.50;0.40;;;10.10;99.90;;;;;;4987080;28;20194;-62
2023/03/09 09:16:14;;;;;;;0.50;0.30;;;10.20;99.90;;;;;;4986910;28;20661;-62
2023/03/09 09:18:41;;;;;;;0.60;0.40;;;10.20;99.90;;;;;;4986553;28;20603;-61
2023/03/09 09:21:11;;;;;;;0.50;0.30;;;10.30;99.90;;;;;;4983185;28;20229;-61
2023/03/09 09:23:40;;;;;;;0.50;0.40;;;10.40;99.90;;;;;;4983445;28;20244;-62
2023/03/09 09:26:11;;;;;;;0.50;0.30;;;10.40;99.90;;;;;;4986025;28;20312;-62
2023/03/09 09:28:39;;;;;;;0.50;0.30;;;10.40;99.90;;;;;;4986378;28;20210;-61
2023/03/09 09:31:11;;;;;;;0.50;0.30;;;10.50;99.90;;;;;;4983028;28;20781;-61
2023/03/09 09:33:41;;;;;;;0.50;0.30;;;10.60;99.90;;;;;;4975037;28;20209;-61
2023/03/09 09:36:11;;;;;;;0.50;0.30;;;10.60;99.90;;;;;;4982966;28;20325;-62
2023/03/09 09:38:41;;;;;;;0.50;0.30;;;10.50;99.90;;;;;;4982739;28;20203;-61
2023/03/09 09:41:16;;;;;;;0.50;0.30;;;10.50;99.90;;;;;;4985398;28;20316;-62
2023/03/09 09:43:45;;;;;;;0.50;0.30;;;10.50;99.90;;;;;;4986611;28;20584;-62
2023/03/09 09:46:16;;;;;;;0.50;0.30;;;10.50;99.90;;;;;;4986463;28;20308;-61
2023/03/09 09:48:47;;;;;;;0.50;0.30;;;10.50;99.90;;;;;;4986018;28;20217;-62
2023/03/09 09:51:34;;;;;;;0.50;0.30;;;10.50;99.90;;;;;;4986210;28;20226;-62
2023/03/09 09:54:08;;;;;;;0.50;0.30;;;10.60;99.90;;;;;;4983011;28;20279;-62
2023/03/09 09:56:45;;;;;;;0.50;0.38;;;10.60;99.90;;;;;;4982879;28;20209;-62
2023/03/09 09:59:19;;;;;;;0.50;0.40;;;10.60;99.90;;;;;;4974700;28;20220;-62
2023/03/09 10:02:01;;;;;;;0.50;0.30;;;10.70;99.90;;;;;;4981182;28;20230;-62
2023/03/09 10:04:37;;;;;;;0.50;0.30;;;10.80;99.90;;;;;;4982692;28;20213;-61
2023/03/09 10:07:14;;;;;;;0.50;0.30;;;10.80;99.90;;;;;;4984791;28;20288;-62
2023/03/09 10:09:45;;;;;;;0.50;0.30;;;10.90;99.90;;;;;;4985744;28;20201;-62
2023/03/09 10:12:23;;;;;;;0.50;0.30;;;10.90;99.90;;;;;;4976124;28;20569;-62
2023/03/09 10:14:56;;;;;;;0.50;0.30;;;10.90;99.90;;;;;;4982567;28;20286;-62
2023/03/09 10:17:29;;;;;;;0.50;0.30;;;10.90;99.90;;;;;;4985938;28;20458;-62
2023/03/09 10:20:10;;;;;;;0.60;0.50;;;11.00;99.90;;;;;;4983994;28;20253;-62
2023/03/09 10:22:40;;;;;;;0.88;0.85;;;11.00;99.90;;;;;;4982312;28;20258;-62
2023/03/09 10:25:12;;;;;;;0.50;0.30;;;11.00;99.90;;;;;;4984581;28;20250;-62
2023/03/09 10:27:45;;;;;;;0.50;0.30;;;11.00;99.90;;;;;;4985528;28;20206;-62
2023/03/09 10:30:22;;;;;;;0.50;0.30;;;11.10;99.90;;;;;;4981799;28;20310;-62
2023/03/09 10:32:53;;;;;;;0.50;0.30;;;11.10;99.90;;;;;;4973875;28;20700;-62
2023/03/09 10:35:27;;;;;;;0.50;0.30;;;11.10;99.90;;;;;;4982287;28;20289;-62
2023/03/09 10:37:55;;;;;;;0.50;0.40;;;11.10;99.90;;;;;;4982473;28;20241;-62
2023/03/09 10:40:26;;;;;;;0.50;0.30;;;11.10;99.90;;;;;;4985110;28;20253;-62
2023/03/09 10:42:54;;;;;;;0.50;0.40;;;11.10;99.90;;;;;;4984604;28;20217;-62
2023/03/09 10:45:25;;;;;;;0.50;0.30;;;11.10;99.90;;;;;;4981782;28;20309;-61
2023/03/09 10:47:59;;;;;;;0.50;0.30;;;11.20;99.90;;;;;;4981994;28;20297;-63
2023/03/09 10:50:32;;;;;;;0.50;0.40;;;11.20;99.90;;;;;;4984995;28;20652;-62
2023/03/09 10:53:25;;;;;;;0.50;0.30;;;11.30;99.90;;;;;;4983725;28;20201;-61
2023/03/09 10:55:55;;;;;;;0.50;0.30;;;11.30;99.90;;;;;;4981541;28;20290;-62
2023/03/09 10:58:33;;;;;;;0.50;0.30;;;11.30;99.90;;;;;;4985147;28;20216;-62
2023/03/09 11:01:03;;;;;;;0.50;0.40;;;11.30;99.90;;;;;;4982005;28;20315;-61
2023/03/09 11:03:35;;;;;;;0.50;0.30;;;11.40;99.90;;;;;;4973532;28;20207;-62
2023/03/09 11:06:24;;;;;;;0.50;0.30;;;11.40;99.90;;;;;;4971474;28;20313;-62
2023/03/09 11:08:58;;;;;;;0.50;0.40;;;11.40;99.90;;;;;;4969972;28;20234;-61
2023/03/09 11:11:43;;;;;;;1.45;0.88;;;11.50;99.90;;;;;;4968470;28;20325;-62
2023/03/09 11:14:29;;;;;;;0.50;0.30;;;11.40;99.90;;;;;;4972060;28;20624;-62
2023/03/09 11:16:59;;;;;;;0.50;0.30;;;11.40;99.90;;;;;;4972857;28;20219;-61
2023/03/09 11:19:28;;;;;;;0.60;0.40;;;11.40;99.90;;;;;;4973371;28;20215;-61
2023/03/09 11:22:04;;;;;;;0.50;0.30;;;11.30;99.90;;;;;;4972677;28;20277;-61
2023/03/09 11:24:37;;;;;;;0.50;0.30;;;11.30;99.90;;;;;;4972974;28;20250;-61
2023/03/09 11:27:08;;;;;;;0.50;0.40;;;11.40;99.90;;;;;;4972933;28;20315;-62
2023/03/09 11:29:46;;;;;;;0.50;0.30;;;11.40;99.90;;;;;;4972865;28;20211;-61
2023/03/09 11:32:13;;;;;;;0.50;0.30;;;11.50;99.90;;;;;;4972320;28;20625;-61
2023/03/09 11:34:43;;;;;;;0.65;0.55;;;11.60;99.90;;;;;;4972595;28;20209;-61
2023/03/09 11:37:19;;;;;;;0.50;0.30;;;11.70;99.90;;;;;;4972952;28;20531;-61
2023/03/09 11:39:52;;;;;;;0.50;0.30;;;11.70;99.90;;;;;;4980093;28;20297;-62
2023/03/09 11:42:30;;;;;;;0.50;0.30;;;11.70;99.90;;;;;;4984123;28;20233;-62
2023/03/09 11:45:00;;;;;;;0.50;0.30;;;11.70;99.90;;;;;;4983270;28;20213;-62
2023/03/09 11:47:31;;;;;;;0.50;0.40;;;11.80;99.90;;;;;;4980708;28;20309;-62
2023/03/09 11:50:04;;;;;;;0.50;0.30;;;11.80;99.90;;;;;;4981206;28;20297;-61
2023/03/09 11:52:37;;;;;;;0.50;0.30;;;11.80;99.90;;;;;;4984170;28;20212;-62
2023/03/09 11:55:13;;;;;;;0.50;0.30;;;11.80;99.90;;;;;;4982361;28;20304;-62
2023/03/09 11:57:46;;;;;;;0.50;0.40;;;11.80;99.90;;;;;;4980792;28;20206;-62
2023/03/09 12:00:17;;;;;;;0.50;0.30;;;11.90;99.90;;;;;;4983265;28;20325;-62
2023/03/09 12:02:58;;;;;;;0.50;0.30;;;11.80;99.90;;;;;;4983875;28;20284;-61
2023/03/09 12:05:31;;;;;;;0.50;0.30;;;11.90;99.90;;;;;;4967640;28;20673;-62
2023/03/09 12:08:04;;;;;;;0.60;0.55;;;11.90;99.90;;;;;;4980482;28;20285;-61
2023/03/09 12:10:37;;;;;;;0.50;0.40;;;11.90;99.90;;;;;;4980400;28;20230;-62
2023/03/09 12:13:10;;;;;;;0.50;0.30;;;11.90;99.90;;;;;;4981543;28;20207;-62
2023/03/09 12:15:46;;;;;;;0.50;0.40;;;11.90;99.90;;;;;;4983523;28;20197;-62
2023/03/09 12:18:20;;;;;;;0.50;0.30;;;11.90;99.90;;;;;;4980983;28;20240;-62
2023/03/09 12:20:54;;;;;;;0.50;0.30;;;12.00;99.90;;;;;;4980465;28;20268;-62
2023/03/09 12:23:45;;;;;;;0.50;0.30;;;12.00;99.90;;;;;;4980287;28;20206;-61
2023/03/09 12:26:32;;;;;;;0.50;0.30;;;12.00;99.90;;;;;;4981924;28;20277;-62
2023/03/09 12:29:16;;;;;;;0.50;0.30;;;12.00;99.90;;;;;;4982743;28;20252;-61
2023/03/09 12:31:45;;;;;;;0.50;0.30;;;12.00;99.90;;;;;;4980103;28;20266;-62
2023/03/09 12:34:38;;;;;;;0.50;0.30;;;12.10;99.90;;;;;;4982348;28;20216;-61
2023/03/09 12:38:03;;;;;;;0.50;0.30;;;12.10;99.90;;;;;;4969683;28;20666;-62
2023/03/09 12:40:38;;;;;;;0.50;0.30;;;12.10;99.90;;;;;;4973584;28;20230;-62
2023/03/09 12:43:43;;;;;;;0.50;0.30;;;12.20;99.90;;;;;;4981188;28;20238;-61
2023/03/09 12:46:49;;;;;;;0.68;0.55;;;12.10;99.90;;;;;;4978397;28;20225;-61
2023/03/09 12:49:19;;;;;;;0.50;0.30;;;12.10;99.90;;;;;;4982064;28;22234;-61
2023/03/09 12:52:07;;;;;;;0.50;0.30;;;12.10;99.90;;;;;;4983278;28;20232;-62
2023/03/09 12:54:35;;;;;;;0.50;0.30;;;12.20;99.90;;;;;;4973676;28;20202;-61
2023/03/09 12:57:16;;;;;;;0.50;0.30;;;12.30;99.90;;;;;;4980555;28;20237;-62
2023/03/09 12:59:46;;;;;;;0.50;0.30;;;12.40;99.90;;;;;;4982794;28;20206;-61
2023/03/09 13:02:31;;;;;;;0.50;0.40;;;12.40;99.90;;;;;;4981003;28;20202;-62
2023/03/09 13:05:30;;;;;;;0.50;0.30;;;12.50;99.90;;;;;;4979721;28;20210;-62
2023/03/09 13:08:02;;;;;;;0.50;0.30;;;12.60;99.90;;;;;;4930990;29;20238;-62
2023/03/09 13:10:33;;;;;;;0.50;0.30;;;12.60;99.90;;;;;;4964956;28;20227;-61
2023/03/09 13:13:39;;;;;;;0.50;0.30;;;12.60;99.90;;;;;;4979762;28;20205;-62